Airfield :
LOGIN :

Register | Disclaimer

   EN    FR    IT 

 










Legend :    VFR   Marginal VFR   IFR   Intensive IFR   Very Intensive IFR
Visi :
Ceiling :
>= 8 km
>= 3000ft
5 to 8 km
1000 to 3000 ft
1500m to 5 km
500 to 1000 ft
800 to 1500m
200 to 500 ft
< 800m
< 200 ft
Symbols :   Thunderstorms  Fog  Heavy snow  Heavy precipitations  Wind > 20 kt
SIGMETs :     Misc.  Thunderstorms  Icing  Turbulence  Mountain Waves  Volcanic Ashes






- Airport Elevation : 1058 ft
- IATA code : SCN


EDDR - Saarbrücken

CURRENT METAR :
  • 280450Z 06007KT 040V100 0200 R27/0650N FG OVC001 00/00 Q1018 TEMPO 0800

EXPIRED METARs :
  • 280420Z 05007KT 020V080 0200 R27/0600N FG OVC001 00/00 Q1018
  • 280350Z 06005KT 010V100 0200 R27/0650N FG OVC001 00/00 Q1018
  • 280320Z 06008KT 0150 R27/0600N FG VV/// 01/01 Q1018
  • 280250Z 05006KT 360V090 0150 R27/0550N FG VV/// 01/01 Q1018
  • 280220Z 07009KT 0200 R27/0500N FG OVC001 01/01 Q1018

TAF AMD TAF EDDR
Valid from the 28 at 02:00 until the 29 at 00:00 UTC


280212Z 2802/2824 06008KT 1600 BR BKN003
TEMPO 2802/2807 0200 FG BKN001
BECMG 2808/2811 4000 SCT002 BKN005
BECMG 2811/2813 6000 SCT008
BECMG 2818/2821 2500 BR BKN005
TEMPO 2821/2824 0800 FG BKN002



MET'MAP, your aeronautical weather chart ! - Copyright ORBIFLY December 2007 - Disclaimer

ORBIFLY MET'MAP TEAM :

Programming & Development : Alexandra Zaïnal
Concept & original design : Baudouin d'Aumeries
Assistance for programming : Marc-Olivier Méhu
Technical & hardware support : Manuel Goepfert

Contact : metmap@orbifly.com




SOURCES & CREDITS :

   NOAA